Time;durP1;ratioP1;P1;durP2;ratioP2;P2;SDS_P1;SDS_P2;PMS_P1;PMS_P2;Temp;Humidity;BMP_temperature;BMP_pressure;BME280_temperature;BME280_humidity;BME280_pressure;Samples;Min_cycle;Max_cycle;Signal;HPM_P1;HPM_P2
2024/03/15 00:00:05;;;;;;;6.27;4.07;;;12.10;77.70;;;;;;5051412;28;20196;-71
2024/03/15 00:02:31;;;;;;;5.73;3.80;;;12.00;77.60;;;;;;5048851;28;20212;-70
2024/03/15 00:04:57;;;;;;;4.93;3.70;;;12.10;77.60;;;;;;5051187;28;20442;-70
2024/03/15 00:07:24;;;;;;;5.10;4.10;;;12.10;77.30;;;;;;5051843;28;20446;-71
2024/03/15 00:09:50;;;;;;;7.60;3.67;;;12.20;77.00;;;;;;5050818;28;20530;-71
2024/03/15 00:12:16;;;;;;;12.00;3.97;;;12.30;77.00;;;;;;5048450;28;20459;-71
2024/03/15 00:14:42;;;;;;;4.43;3.47;;;12.20;77.00;;;;;;5049932;28;20423;-69
2024/03/15 00:17:08;;;;;;;7.40;4.13;;;12.20;77.10;;;;;;5052597;28;21041;-71
2024/03/15 00:19:34;;;;;;;6.20;4.17;;;12.20;77.10;;;;;;5057288;28;20545;-72
2024/03/15 00:22:00;;;;;;;8.20;3.90;;;12.20;77.00;;;;;;5048703;28;20555;-71
2024/03/15 00:24:26;;;;;;;6.57;3.90;;;12.20;76.70;;;;;;5050196;28;20466;-71
2024/03/15 00:26:51;;;;;;;5.60;3.57;;;12.20;76.70;;;;;;5052718;28;20176;-71
2024/03/15 00:29:18;;;;;;;5.63;3.40;;;12.30;76.40;;;;;;5053710;28;20641;-71
2024/03/15 00:31:47;;;;;;;5.70;3.43;;;12.40;76.10;;;;;;5048651;28;20258;-71
2024/03/15 00:34:12;;;;;;;6.23;3.93;;;12.50;75.80;;;;;;5051003;28;20430;-69
2024/03/15 00:36:38;;;;;;;7.00;3.70;;;12.50;75.50;;;;;;5051468;28;20827;-71
2024/03/15 00:39:05;;;;;;;4.73;3.40;;;12.60;75.20;;;;;;5051228;28;20184;-71
2024/03/15 00:41:32;;;;;;;8.70;3.90;;;12.70;75.10;;;;;;5047168;28;20213;-69
2024/03/15 00:43:58;;;;;;;5.27;4.00;;;12.70;74.80;;;;;;5045441;28;20470;-71
2024/03/15 00:46:24;;;;;;;6.43;3.30;;;12.70;74.80;;;;;;5051288;28;20798;-71
2024/03/15 00:48:51;;;;;;;6.00;3.83;;;12.70;74.50;;;;;;5050877;28;20411;-72
2024/03/15 00:51:16;;;;;;;6.40;3.90;;;12.70;74.80;;;;;;5048147;28;20462;-71
2024/03/15 00:53:42;;;;;;;8.73;3.70;;;12.50;75.20;;;;;;5051135;28;20423;-72
2024/03/15 00:56:12;;;;;;;6.93;4.10;;;12.50;75.50;;;;;;5051753;28;20184;-72
2024/03/15 00:58:38;;;;;;;3.80;3.47;;;12.50;75.40;;;;;;5051056;28;20176;-72
2024/03/15 01:01:07;;;;;;;6.03;3.80;;;12.50;75.40;;;;;;5047245;28;20462;-70
2024/03/15 01:03:33;;;;;;;7.00;3.87;;;12.50;75.40;;;;;;5043670;28;20463;-70
2024/03/15 01:05:58;;;;;;;6.90;4.07;;;12.50;75.50;;;;;;5049544;28;20434;-71
2024/03/15 01:08:24;;;;;;;5.83;3.87;;;12.50;75.50;;;;;;5051961;28;20203;-71
2024/03/15 01:10:50;;;;;;;4.83;3.60;;;12.50;75.40;;;;;;5048274;28;20212;-69
2024/03/15 01:13:17;;;;;;;5.10;3.70;;;12.50;75.20;;;;;;5054037;28;20410;-71
2024/03/15 01:15:44;;;;;;;4.93;3.60;;;12.50;75.20;;;;;;5051799;28;20334;-71
2024/03/15 01:18:10;;;;;;;6.53;3.83;;;12.50;75.10;;;;;;5050735;28;20793;-71
2024/03/15 01:20:36;;;;;;;5.60;3.70;;;12.50;75.10;;;;;;5049170;28;20934;-69
2024/03/15 01:23:02;;;;;;;6.20;3.57;;;12.50;75.20;;;;;;5066156;28;20482;-71
2024/03/15 01:25:29;;;;;;;5.83;3.83;;;12.50;75.20;;;;;;5053506;28;20481;-70
2024/03/15 01:27:57;;;;;;;6.23;3.83;;;12.50;75.20;;;;;;5054312;28;20449;-68
2024/03/15 01:30:23;;;;;;;4.37;2.97;;;12.40;75.40;;;;;;5058156;28;20450;-71
2024/03/15 01:32:49;;;;;;;4.57;3.20;;;12.40;75.50;;;;;;5049434;28;20438;-71
2024/03/15 01:35:16;;;;;;;7.13;3.80;;;12.40;75.20;;;;;;5055007;28;20407;-70
2024/03/15 01:37:42;;;;;;;6.90;3.30;;;12.40;75.20;;;;;;5048642;28;20411;-71
2024/03/15 01:40:09;;;;;;;6.70;3.60;;;12.40;75.40;;;;;;5045722;28;20408;-71
2024/03/15 01:42:35;;;;;;;4.00;3.23;;;12.30;75.40;;;;;;5044663;28;20451;-70
2024/03/15 01:45:01;;;;;;;6.17;3.53;;;12.30;75.50;;;;;;5045414;28;21542;-72
2024/03/15 01:47:28;;;;;;;5.90;4.00;;;12.20;75.90;;;;;;5049390;28;20430;-71
2024/03/15 01:49:56;;;;;;;4.77;3.17;;;12.10;76.40;;;;;;5049816;28;20419;-69
2024/03/15 01:52:22;;;;;;;7.17;3.90;;;12.00;76.70;;;;;;5044731;28;20450;-72
2024/03/15 01:54:48;;;;;;;8.10;3.90;;;12.00;76.70;;;;;;5048954;28;20766;-72
2024/03/15 01:57:15;;;;;;;5.93;3.70;;;12.00;76.70;;;;;;5050089;28;20407;-70
2024/03/15 01:59:43;;;;;;;4.60;3.27;;;11.90;76.80;;;;;;5050246;28;20418;-70
2024/03/15 02:02:10;;;;;;;5.80;3.07;;;12.00;76.50;;;;;;5046746;28;20462;-71
2024/03/15 02:04:36;;;;;;;5.80;2.93;;;12.10;76.20;;;;;;5051054;28;20475;-71
2024/03/15 02:07:02;;;;;;;6.00;3.37;;;12.10;75.80;;;;;;5055185;28;20465;-69
2024/03/15 02:09:28;;;;;;;6.50;3.80;;;12.00;76.20;;;;;;5052968;28;20187;-70
2024/03/15 02:11:57;;;;;;;5.90;3.70;;;12.00;76.20;;;;;;5049739;28;20466;-69
2024/03/15 02:14:25;;;;;;;4.63;3.17;;;12.00;75.90;;;;;;5045182;28;20669;-71
2024/03/15 02:16:53;;;;;;;6.47;3.30;;;12.00;76.10;;;;;;5048858;28;20426;-70
2024/03/15 02:19:19;;;;;;;6.73;3.63;;;12.00;75.90;;;;;;5056698;28;20451;-70
2024/03/15 02:21:48;;;;;;;4.90;3.53;;;12.00;75.90;;;;;;5050579;28;20470;-71
2024/03/15 02:24:15;;;;;;;7.30;3.50;;;12.00;75.90;;;;;;5053960;28;20494;-67
2024/03/15 02:26:41;;;;;;;4.73;3.30;;;12.00;75.70;;;;;;5053343;28;20920;-70
2024/03/15 02:29:12;;;;;;;6.10;3.83;;;12.00;75.70;;;;;;5049414;28;20427;-71
2024/03/15 02:31:38;;;;;;;6.50;3.50;;;12.00;75.70;;;;;;5047915;28;20487;-72
2024/03/15 02:34:03;;;;;;;5.70;3.50;;;12.00;75.80;;;;;;5051812;28;20943;-72
2024/03/15 02:36:30;;;;;;;5.60;3.83;;;12.00;75.80;;;;;;5046863;28;20235;-70
2024/03/15 02:38:56;;;;;;;4.70;2.80;;;12.00;75.70;;;;;;5048448;28;20181;-70
2024/03/15 02:41:21;;;;;;;7.50;3.37;;;12.00;75.70;;;;;;5045619;28;20530;-70
2024/03/15 02:43:47;;;;;;;4.53;3.20;;;12.00;75.80;;;;;;5049231;28;20560;-70
2024/03/15 02:46:16;;;;;;;7.23;3.57;;;11.80;76.10;;;;;;5051699;28;20189;-70
2024/03/15 02:48:43;;;;;;;4.77;3.33;;;11.80;76.20;;;;;;5047642;28;20192;-68
2024/03/15 02:51:10;;;;;;;5.13;3.57;;;11.80;76.40;;;;;;5049369;28;20477;-70
2024/03/15 02:53:36;;;;;;;4.30;3.33;;;11.80;76.20;;;;;;5052582;28;20411;-71
2024/03/15 02:56:02;;;;;;;4.90;3.60;;;11.70;76.50;;;;;;5051724;28;20785;-70
2024/03/15 02:58:28;;;;;;;6.90;3.50;;;11.60;76.70;;;;;;5053008;28;20180;-71
2024/03/15 03:00:54;;;;;;;5.30;3.27;;;11.60;77.10;;;;;;5049521;28;20206;-69
2024/03/15 03:03:20;;;;;;;7.80;3.30;;;11.50;76.80;;;;;;5053344;28;20481;-69
2024/03/15 03:05:46;;;;;;;5.20;3.00;;;11.50;77.30;;;;;;5053710;28;20425;-71
2024/03/15 03:08:12;;;;;;;11.50;4.17;;;11.50;77.00;;;;;;5053549;28;20838;-70
2024/03/15 03:10:38;;;;;;;4.30;3.50;;;11.50;77.00;;;;;;5051424;28;20188;-68
2024/03/15 03:13:03;;;;;;;4.93;3.30;;;11.40;77.10;;;;;;5051992;28;20912;-70
2024/03/15 03:15:29;;;;;;;5.20;3.77;;;11.40;77.60;;;;;;5052321;28;20249;-70
2024/03/15 03:17:58;;;;;;;5.93;3.80;;;11.40;77.40;;;;;;5052011;28;20192;-69
2024/03/15 03:20:24;;;;;;;7.50;3.40;;;11.30;77.80;;;;;;5050053;28;20333;-71
2024/03/15 03:22:51;;;;;;;5.10;3.63;;;11.30;77.70;;;;;;5048622;28;21184;-69
2024/03/15 03:25:18;;;;;;;5.27;3.23;;;11.30;77.60;;;;;;5054356;28;20215;-70
2024/03/15 03:27:44;;;;;;;4.23;3.10;;;11.40;77.10;;;;;;5055444;28;20462;-70
2024/03/15 03:30:10;;;;;;;3.60;2.53;;;11.40;77.10;;;;;;5053389;28;20415;-71
2024/03/15 03:32:36;;;;;;;4.53;3.20;;;11.50;76.20;;;;;;5049210;28;20201;-71
2024/03/15 03:35:05;;;;;;;4.77;2.87;;;11.50;75.80;;;;;;5055311;28;20477;-70
2024/03/15 03:37:34;;;;;;;5.63;3.27;;;11.60;75.70;;;;;;5051502;28;20403;-69
2024/03/15 03:40:00;;;;;;;6.10;3.13;;;11.60;75.20;;;;;;5050836;28;20419;-71
2024/03/15 03:42:26;;;;;;;4.80;3.17;;;11.60;75.40;;;;;;5049740;28;20467;-71
2024/03/15 03:44:53;;;;;;;7.70;3.27;;;11.60;75.40;;;;;;5052258;28;20466;-70
2024/03/15 03:47:19;;;;;;;4.83;3.07;;;11.70;75.10;;;;;;5051870;28;20411;-70
2024/03/15 03:49:47;;;;;;;5.20;3.30;;;11.70;74.90;;;;;;5052136;28;21014;-71
2024/03/15 03:52:14;;;;;;;4.50;3.20;;;11.60;74.80;;;;;;5049190;28;20800;-70
2024/03/15 03:54:40;;;;;;;4.60;3.67;;;11.60;75.10;;;;;;5052488;28;20538;-70
2024/03/15 03:57:05;;;;;;;3.77;2.70;;;11.60;74.60;;;;;;5051615;28;20418;-70
2024/03/15 03:59:31;;;;;;;5.37;2.93;;;11.60;74.90;;;;;;5054656;28;20179;-71
2024/03/15 04:01:57;;;;;;;4.20;2.90;;;11.70;74.20;;;;;;5052807;28;20258;-68
2024/03/15 04:04:22;;;;;;;5.53;3.13;;;11.70;74.20;;;;;;5053125;28;20279;-69
2024/03/15 04:06:51;;;;;;;5.47;3.03;;;11.80;74.20;;;;;;5053358;28;20338;-70
2024/03/15 04:09:18;;;;;;;5.97;3.30;;;11.80;73.70;;;;;;5052360;28;20272;-71
2024/03/15 04:11:45;;;;;;;2.97;2.73;;;11.70;73.90;;;;;;5048177;28;20470;-72
2024/03/15 04:14:15;;;;;;;3.83;2.63;;;11.70;74.00;;;;;;5052732;28;20423;-68
2024/03/15 04:16:44;;;;;;;4.43;2.83;;;11.60;74.30;;;;;;5051556;28;20427;-67
2024/03/15 04:19:10;;;;;;;4.50;3.10;;;11.70;73.70;;;;;;5056496;28;20419;-70
2024/03/15 04:21:36;;;;;;;5.53;2.73;;;11.70;73.00;;;;;;5047837;28;20473;-71
2024/03/15 04:24:03;;;;;;;4.40;2.87;;;11.90;72.10;;;;;;5049309;28;20213;-71
2024/03/15 04:26:31;;;;;;;6.70;3.00;;;12.00;71.80;;;;;;5049878;28;20977;-72
2024/03/15 04:28:57;;;;;;;3.70;2.80;;;12.00;71.80;;;;;;5049957;28;20433;-69
2024/03/15 04:31:23;;;;;;;4.23;2.70;;;11.90;72.60;;;;;;5047187;28;20506;-69
2024/03/15 04:33:49;;;;;;;9.73;3.40;;;11.90;72.60;;;;;;5050797;28;20450;-71
2024/03/15 04:36:15;;;;;;;6.27;2.90;;;11.80;72.60;;;;;;5050730;28;20877;-69
2024/03/15 04:38:41;;;;;;;4.10;3.27;;;11.80;72.90;;;;;;5050822;28;20428;-69
2024/03/15 04:41:09;;;;;;;5.20;3.30;;;11.80;73.00;;;;;;5046304;28;20483;-71
2024/03/15 04:43:36;;;;;;;4.27;2.40;;;12.00;71.80;;;;;;5044657;28;20208;-70
2024/03/15 04:46:03;;;;;;;6.50;3.30;;;12.00;71.60;;;;;;5049322;28;20523;-72
2024/03/15 04:48:29;;;;;;;7.03;2.57;;;12.00;71.40;;;;;;5052806;28;20817;-71
2024/03/15 04:50:55;;;;;;;3.10;2.70;;;12.10;70.80;;;;;;5046841;28;20528;-70
2024/03/15 04:53:20;;;;;;;3.40;2.83;;;12.10;70.80;;;;;;5049589;28;20424;-71
2024/03/15 04:55:46;;;;;;;4.90;2.90;;;12.00;71.10;;;;;;5048028;28;20271;-70
2024/03/15 04:58:11;;;;;;;5.70;3.00;;;12.20;70.80;;;;;;5050769;28;20177;-69
2024/03/15 05:00:37;;;;;;;7.73;3.33;;;12.20;69.70;;;;;;5050459;28;20287;-71
2024/03/15 05:03:06;;;;;;;3.87;2.80;;;12.20;70.70;;;;;;5050830;28;20241;-70
2024/03/15 05:05:32;;;;;;;4.87;3.33;;;12.20;69.90;;;;;;5056242;28;20501;-69
2024/03/15 05:07:58;;;;;;;5.47;2.90;;;12.20;69.70;;;;;;5050671;28;20530;-69
2024/03/15 05:10:23;;;;;;;4.97;3.00;;;12.20;69.20;;;;;;5052620;28;20567;-70
2024/03/15 05:12:50;;;;;;;3.40;2.10;;;12.20;69.70;;;;;;5046786;28;20185;-70
2024/03/15 05:15:16;;;;;;;3.70;2.70;;;12.30;69.10;;;;;;5050800;28;20188;-70
2024/03/15 05:17:42;;;;;;;5.37;2.30;;;12.40;68.90;;;;;;5051145;28;20990;-68
2024/03/15 05:20:15;;;;;;;5.53;2.90;;;12.40;69.20;;;;;;5050607;28;20415;-69
2024/03/15 05:22:43;;;;;;;4.30;3.13;;;12.30;69.80;;;;;;5046002;28;20236;-70
2024/03/15 05:25:13;;;;;;;3.37;2.63;;;12.20;70.40;;;;;;5050105;28;20433;-70
2024/03/15 05:27:40;;;;;;;6.20;3.27;;;12.20;70.70;;;;;;5055074;28;20430;-69
2024/03/15 05:30:07;;;;;;;3.77;2.70;;;12.10;70.80;;;;;;5050383;28;20947;-68
2024/03/15 05:32:33;;;;;;;6.27;3.33;;;12.00;70.80;;;;;;5047177;28;21040;-71
2024/03/15 05:35:01;;;;;;;6.17;3.30;;;11.90;71.30;;;;;;5050858;28;20438;-70
2024/03/15 05:37:28;;;;;;;3.70;2.97;;;11.90;71.70;;;;;;5050216;28;20431;-71
2024/03/15 05:39:53;;;;;;;4.13;3.00;;;11.90;72.00;;;;;;5051226;28;20423;-71
2024/03/15 05:42:19;;;;;;;4.20;3.10;;;11.90;72.00;;;;;;5048805;28;20451;-71
2024/03/15 05:44:45;;;;;;;5.97;3.10;;;11.90;72.10;;;;;;5046302;28;20219;-70
2024/03/15 05:47:12;;;;;;;5.87;3.07;;;11.80;72.30;;;;;;5050704;28;20645;-70
2024/03/15 05:49:38;;;;;;;4.37;3.33;;;11.70;72.60;;;;;;5049493;28;20628;-70
2024/03/15 05:52:04;;;;;;;4.03;3.00;;;11.60;72.60;;;;;;5047506;28;20529;-70
2024/03/15 05:54:30;;;;;;;6.20;3.20;;;11.60;72.90;;;;;;5048703;28;20450;-71
2024/03/15 05:56:56;;;;;;;4.23;3.23;;;11.40;73.00;;;;;;5048053;28;20184;-68
2024/03/15 05:59:21;;;;;;;4.93;3.50;;;11.40;73.30;;;;;;5048959;28;20181;-71
2024/03/15 06:01:47;;;;;;;6.30;3.10;;;11.40;73.60;;;;;;5045526;28;20551;-71
2024/03/15 06:04:13;;;;;;;5.90;3.33;;;11.30;73.60;;;;;;5043364;28;20212;-71
2024/03/15 06:06:40;;;;;;;8.87;3.67;;;11.20;73.70;;;;;;5051985;28;20466;-71
2024/03/15 06:09:08;;;;;;;5.20;3.33;;;11.20;74.00;;;;;;5051370;28;20230;-71
2024/03/15 06:11:35;;;;;;;4.13;2.77;;;11.20;73.90;;;;;;5047392;28;20463;-71
2024/03/15 06:14:01;;;;;;;4.23;2.73;;;11.10;74.00;;;;;;5044296;28;20414;-70
2024/03/15 06:16:27;;;;;;;3.73;3.00;;;11.20;73.30;;;;;;5049301;28;20437;-70
2024/03/15 06:18:53;;;;;;;3.23;2.60;;;11.20;73.20;;;;;;5051217;28;20426;-71
2024/03/15 06:21:19;;;;;;;4.93;3.03;;;11.20;73.00;;;;;;5047394;28;20448;-70
2024/03/15 06:23:44;;;;;;;5.03;3.30;;;11.20;73.30;;;;;;5052377;28;20208;-69
2024/03/15 06:26:10;;;;;;;6.10;3.23;;;11.30;73.50;;;;;;5054518;28;20674;-69
2024/03/15 06:28:37;;;;;;;5.13;3.67;;;11.20;73.50;;;;;;5054770;28;20230;-70
2024/03/15 06:31:06;;;;;;;6.53;3.00;;;11.20;73.70;;;;;;5051769;28;20208;-71
2024/03/15 06:33:33;;;;;;;4.23;2.90;;;11.30;73.70;;;;;;5054931;28;20426;-71
2024/03/15 06:36:00;;;;;;;6.17;2.80;;;11.50;71.80;;;;;;5048331;28;20454;-71
2024/03/15 06:41:13;;;;;;;5.13;3.50;;;11.50;72.00;;;;;;5051757;28;20474;-70
2024/03/15 06:43:41;;;;;;;5.40;3.43;;;11.40;72.30;;;;;;5055378;28;20467;-71
2024/03/15 06:46:19;;;;;;;6.30;3.33;;;11.40;72.60;;;;;;5047536;28;20434;-70
2024/03/15 06:48:55;;;;;;;5.83;3.23;;;11.40;72.40;;;;;;5053294;28;20418;-70
2024/03/15 06:54:07;;;;;;;8.60;3.73;;;11.30;72.90;;;;;;5043977;28;20469;-70
2024/03/15 06:56:32;;;;;;;7.83;3.30;;;11.40;72.90;;;;;;5051494;28;20407;-72
2024/03/15 06:58:58;;;;;;;5.00;3.40;;;11.40;73.00;;;;;;5052786;28;20425;-72
2024/03/15 07:01:23;;;;;;;5.40;3.23;;;11.40;73.30;;;;;;5049174;28;20590;-71
2024/03/15 07:03:49;;;;;;;6.73;3.10;;;11.40;73.20;;;;;;5052429;28;20310;-71
2024/03/15 07:06:20;;;;;;;6.83;3.90;;;11.40;72.30;;;;;;5052436;28;20199;-69
2024/03/15 07:08:49;;;;;;;5.40;3.30;;;11.50;72.10;;;;;;5052856;28;20234;-70
2024/03/15 07:11:15;;;;;;;4.50;3.10;;;11.50;72.30;;;;;;5048476;28;20523;-70
2024/03/15 07:13:41;;;;;;;8.23;3.07;;;11.60;71.70;;;;;;5046867;28;20479;-68
2024/03/15 07:16:09;;;;;;;6.60;2.77;;;11.70;71.30;;;;;;5052273;28;20989;-70
2024/03/15 07:18:35;;;;;;;4.63;3.17;;;11.80;70.50;;;;;;5052316;28;20189;-70
2024/03/15 07:21:01;;;;;;;6.53;2.83;;;11.90;70.20;;;;;;5049265;28;20462;-72
2024/03/15 07:23:27;;;;;;;7.20;3.10;;;11.90;70.20;;;;;;5047955;28;20490;-71
2024/03/15 07:25:53;;;;;;;5.63;3.03;;;11.90;70.10;;;;;;5056405;28;20185;-69
2024/03/15 07:28:21;;;;;;;4.07;2.97;;;12.10;69.80;;;;;;5055459;28;20779;-71
2024/03/15 07:30:50;;;;;;;5.03;3.17;;;12.20;69.50;;;;;;5051152;28;20450;-71
2024/03/15 07:33:18;;;;;;;4.20;2.83;;;12.30;68.90;;;;;;5047877;28;20429;-71
2024/03/15 07:35:46;;;;;;;15.20;6.63;;;12.30;68.90;;;;;;5058445;28;20427;-71
2024/03/15 07:38:12;;;;;;;6.10;3.10;;;12.40;68.90;;;;;;5060298;28;21230;-70
2024/03/15 07:40:38;;;;;;;3.30;2.50;;;12.50;68.80;;;;;;5052095;28;20432;-70
2024/03/15 07:43:04;;;;;;;5.80;2.80;;;12.70;67.90;;;;;;5054954;28;21876;-71
2024/03/15 07:45:30;;;;;;;3.70;2.50;;;12.90;67.30;;;;;;5055992;28;20446;-70
2024/03/15 07:47:56;;;;;;;5.30;2.70;;;13.00;67.20;;;;;;5053998;28;20208;-72
2024/03/15 07:50:24;;;;;;;7.80;2.60;;;13.10;66.90;;;;;;5053011;28;20461;-72
2024/03/15 07:52:50;;;;;;;5.70;2.60;;;13.30;66.70;;;;;;5048279;28;20451;-73
2024/03/15 07:55:16;;;;;;;4.27;2.70;;;13.40;66.40;;;;;;5050777;28;20514;-71
2024/03/15 07:57:42;;;;;;;3.73;2.70;;;13.50;66.30;;;;;;5050018;28;20819;-71
2024/03/15 08:00:09;;;;;;;5.83;2.80;;;13.60;66.10;;;;;;5054759;28;20188;-70
2024/03/15 08:02:35;;;;;;;4.37;2.83;;;13.70;66.00;;;;;;5052343;28;20574;-73
2024/03/15 08:05:01;;;;;;;5.27;2.73;;;13.80;65.80;;;;;;5050807;28;20553;-71
2024/03/15 08:07:27;;;;;;;5.27;2.90;;;13.90;65.70;;;;;;5050748;28;21137;-71
2024/03/15 08:09:52;;;;;;;4.63;2.93;;;13.90;65.60;;;;;;5052937;28;20681;-74
2024/03/15 08:12:18;;;;;;;4.50;2.53;;;14.00;65.30;;;;;;5048312;28;20208;-72
2024/03/15 08:14:44;;;;;;;5.23;3.60;;;14.10;65.10;;;;;;5052567;28;20188;-72
2024/03/15 08:17:10;;;;;;;4.03;2.60;;;14.10;65.00;;;;;;5052402;28;20415;-73
2024/03/15 08:19:35;;;;;;;3.97;3.20;;;14.20;64.80;;;;;;5054411;28;20185;-71
2024/03/15 08:22:01;;;;;;;5.33;2.80;;;14.20;65.00;;;;;;5053001;28;20759;-72
2024/03/15 08:24:27;;;;;;;17.33;4.07;;;14.20;65.00;;;;;;5053405;28;20217;-72
2024/03/15 08:26:53;;;;;;;7.07;2.97;;;14.40;64.50;;;;;;5056914;28;20433;-74
2024/03/15 08:29:22;;;;;;;3.70;2.57;;;14.40;64.80;;;;;;5049507;28;20437;-72
2024/03/15 08:31:48;;;;;;;5.20;2.63;;;14.40;64.70;;;;;;5051077;28;20460;-73
2024/03/15 08:34:14;;;;;;;4.60;2.80;;;14.30;64.80;;;;;;5047495;28;20454;-73
2024/03/15 08:36:40;;;;;;;4.43;2.03;;;14.40;65.00;;;;;;5050919;28;20189;-72
2024/03/15 08:39:15;;;;;;;6.37;3.00;;;14.50;64.40;;;;;;5051051;28;20424;-72
2024/03/15 08:41:42;;;;;;;4.50;2.30;;;14.60;64.10;;;;;;5048294;28;20477;-71
2024/03/15 08:44:08;;;;;;;5.70;2.80;;;14.70;63.90;;;;;;5054006;28;20475;-74
2024/03/15 08:46:36;;;;;;;5.37;2.63;;;14.80;64.10;;;;;;5062307;28;20440;-72
2024/03/15 08:49:02;;;;;;;6.80;2.80;;;14.80;63.90;;;;;;5052760;28;20488;-73
2024/03/15 08:51:27;;;;;;;4.47;3.10;;;14.90;64.10;;;;;;5048577;28;20449;-71
2024/03/15 08:53:53;;;;;;;3.40;3.07;;;15.00;64.10;;;;;;5047941;28;20219;-71
2024/03/15 08:56:19;;;;;;;2.70;2.00;;;15.10;63.80;;;;;;5053364;28;20204;-72
2024/03/15 08:58:49;;;;;;;4.23;2.17;;;15.10;63.80;;;;;;5053282;28;20213;-73
2024/03/15 09:01:18;;;;;;;4.33;2.40;;;15.20;63.80;;;;;;5048640;28;20207;-70
2024/03/15 09:03:44;;;;;;;7.60;2.53;;;15.30;63.80;;;;;;5048201;28;20572;-73
2024/03/15 09:06:11;;;;;;;4.40;2.73;;;15.40;63.50;;;;;;5051314;28;20428;-73
2024/03/15 09:08:36;;;;;;;4.90;2.30;;;15.50;63.50;;;;;;5052411;28;20429;-73
2024/03/15 09:11:02;;;;;;;3.40;2.30;;;15.60;63.20;;;;;;5049820;28;20466;-72
2024/03/15 09:13:29;;;;;;;5.50;2.33;;;15.70;63.40;;;;;;5052911;28;20629;-73
2024/03/15 09:15:56;;;;;;;5.37;2.80;;;15.80;63.20;;;;;;5052554;28;20466;-72
2024/03/15 09:18:22;;;;;;;8.13;2.50;;;15.80;63.10;;;;;;5051891;28;20818;-72
2024/03/15 09:20:50;;;;;;;5.00;2.07;;;15.90;63.10;;;;;;5045737;28;20523;-71
2024/03/15 09:23:16;;;;;;;2.70;2.00;;;16.10;62.80;;;;;;5051667;28;20923;-72
2024/03/15 09:25:44;;;;;;;4.47;2.10;;;16.20;62.80;;;;;;5051266;28;20484;-71
2024/03/15 09:28:10;;;;;;;11.27;3.27;;;16.30;62.60;;;;;;5050383;28;20199;-73
2024/03/15 09:30:36;;;;;;;4.80;2.80;;;16.40;62.80;;;;;;5049391;28;20841;-71
2024/03/15 09:33:08;;;;;;;7.30;2.80;;;16.50;62.60;;;;;;5047853;28;20434;-71
2024/03/15 09:35:36;;;;;;;4.77;2.40;;;16.60;62.00;;;;;;5045402;28;20196;-71
2024/03/15 09:38:02;;;;;;;2.87;1.87;;;16.70;62.20;;;;;;5048790;28;20438;-72
2024/03/15 09:40:28;;;;;;;2.90;2.30;;;16.80;61.70;;;;;;5051429;28;20426;-72
2024/03/15 09:42:54;;;;;;;5.53;2.20;;;16.80;61.90;;;;;;5050448;28;20185;-72
2024/03/15 09:45:26;;;;;;;4.10;2.10;;;17.00;62.00;;;;;;5057655;28;20414;-71
2024/03/15 09:47:53;;;;;;;3.53;2.33;;;17.10;62.30;;;;;;5054543;28;20791;-71
2024/03/15 09:50:29;;;;;;;3.27;2.20;;;17.10;62.20;;;;;;5051188;28;20932;-71
2024/03/15 09:52:56;;;;;;;3.50;2.53;;;17.20;62.00;;;;;;5045623;28;20976;-74
2024/03/15 09:55:22;;;;;;;4.10;2.20;;;17.30;61.70;;;;;;5053953;28;20943;-72
2024/03/15 09:57:51;;;;;;;5.40;2.10;;;17.30;61.60;;;;;;5051682;28;20520;-71
2024/03/15 10:00:22;;;;;;;4.00;1.93;;;17.30;61.60;;;;;;5051474;28;20629;-73
2024/03/15 10:02:49;;;;;;;4.10;1.80;;;17.50;61.90;;;;;;5047179;28;20431;-71
2024/03/15 10:05:15;;;;;;;4.10;1.90;;;17.90;60.60;;;;;;5051211;28;20503;-71
2024/03/15 10:07:41;;;;;;;7.50;2.17;;;17.80;60.60;;;;;;5048877;28;20448;-71
2024/03/15 10:10:11;;;;;;;5.80;2.10;;;17.60;60.90;;;;;;5045645;28;20806;-72
2024/03/15 10:12:44;;;;;;;4.87;2.20;;;17.50;61.20;;;;;;5044770;28;20211;-72
2024/03/15 10:15:12;;;;;;;3.73;1.93;;;17.40;61.60;;;;;;5052171;28;20428;-72
2024/03/15 10:17:46;;;;;;;4.53;2.03;;;17.30;61.90;;;;;;5052132;28;20427;-72
2024/03/15 10:20:14;;;;;;;4.00;2.23;;;17.30;62.50;;;;;;5054241;28;20415;-72
2024/03/15 10:22:40;;;;;;;3.53;2.37;;;17.20;62.90;;;;;;5048760;28;20466;-72
2024/03/15 10:25:15;;;;;;;4.20;2.20;;;17.20;62.90;;;;;;5046740;28;20547;-72
2024/03/15 10:28:01;;;;;;;2.03;1.47;;;17.20;62.90;;;;;;5051156;28;20429;-72
2024/03/15 10:30:29;;;;;;;2.40;1.70;;;17.20;62.80;;;;;;5056175;28;20444;-73
2024/03/15 10:32:58;;;;;;;2.17;1.43;;;17.10;62.90;;;;;;5055567;28;20438;-72
2024/03/15 10:35:24;;;;;;;2.53;1.70;;;17.00;62.80;;;;;;5049518;28;20437;-70
2024/03/15 10:37:51;;;;;;;2.90;1.60;;;16.90;62.90;;;;;;5056909;28;20471;-73
2024/03/15 10:40:26;;;;;;;2.30;1.50;;;16.90;62.80;;;;;;5051904;28;20419;-71
2024/03/15 10:42:54;;;;;;;3.53;2.00;;;16.80;62.60;;;;;;5048182;28;20442;-72
2024/03/15 10:45:23;;;;;;;2.70;1.63;;;17.00;62.80;;;;;;5045689;28;20428;-71
2024/03/15 10:47:49;;;;;;;2.60;1.60;;;17.00;62.60;;;;;;5051204;28;20514;-71
2024/03/15 10:50:20;;;;;;;2.77;1.63;;;16.90;62.80;;;;;;5052285;28;20447;-70
2024/03/15 10:52:50;;;;;;;2.37;1.53;;;17.00;62.90;;;;;;5041943;28;20213;-72
2024/03/15 10:55:17;;;;;;;6.33;1.80;;;16.70;63.70;;;;;;5050872;28;20443;-70
2024/03/15 10:57:44;;;;;;;2.40;1.40;;;16.70;64.10;;;;;;5048252;28;20842;-71
2024/03/15 11:00:17;;;;;;;2.43;1.67;;;16.60;64.10;;;;;;5055781;28;20518;-73
2024/03/15 11:02:47;;;;;;;3.10;1.87;;;16.60;64.40;;;;;;5046759;28;20554;-72
2024/03/15 11:05:27;;;;;;;5.00;1.87;;;16.60;64.50;;;;;;5049346;28;20477;-72
2024/03/15 11:08:09;;;;;;;3.50;1.67;;;16.60;64.80;;;;;;5059213;28;20470;-71
2024/03/15 11:10:36;;;;;;;4.83;2.70;;;16.60;64.70;;;;;;5055992;28;20421;-71
2024/03/15 11:13:07;;;;;;;2.80;1.87;;;16.50;65.00;;;;;;5073385;28;21117;-71
2024/03/15 11:15:34;;;;;;;3.10;2.00;;;16.50;65.00;;;;;;5052646;28;20923;-72
2024/03/15 11:18:08;;;;;;;7.17;2.17;;;16.50;65.10;;;;;;5058078;28;20449;-70
2024/03/15 11:20:43;;;;;;;4.20;2.07;;;16.50;64.70;;;;;;5057096;28;20502;-73
2024/03/15 11:23:17;;;;;;;4.43;2.00;;;16.50;64.80;;;;;;5057549;28;20411;-72
2024/03/15 11:25:59;;;;;;;4.60;2.20;;;16.60;64.70;;;;;;5062134;28;20442;-71
2024/03/15 11:28:27;;;;;;;4.07;2.20;;;16.80;64.20;;;;;;5057380;28;20791;-72
2024/03/15 11:30:53;;;;;;;5.80;2.57;;;16.90;63.90;;;;;;5052197;28;20539;-72
2024/03/15 11:33:19;;;;;;;4.93;1.93;;;16.80;64.10;;;;;;5058874;28;20427;-71
2024/03/15 11:35:49;;;;;;;2.97;2.07;;;16.80;64.10;;;;;;5058395;28;20434;-71
2024/03/15 11:38:16;;;;;;;2.37;1.93;;;16.90;63.90;;;;;;5056900;28;20187;-71
2024/03/15 11:40:42;;;;;;;5.97;1.93;;;16.80;64.10;;;;;;5051737;28;20889;-72
2024/03/15 11:43:08;;;;;;;3.10;2.00;;;17.00;63.50;;;;;;5058058;28;20950;-71
2024/03/15 11:45:38;;;;;;;3.67;2.40;;;17.10;63.10;;;;;;5063912;28;20494;-72
2024/03/15 11:48:16;;;;;;;3.67;1.87;;;17.10;63.40;;;;;;5062225;28;20962;-72
2024/03/15 11:50:45;;;;;;;3.13;2.17;;;17.10;63.20;;;;;;5056154;28;20449;-71
2024/03/15 11:53:14;;;;;;;2.23;2.10;;;17.10;63.20;;;;;;5055757;28;21050;-71
2024/03/15 11:55:47;;;;;;;2.93;1.97;;;17.30;62.60;;;;;;5059555;28;20430;-73
2024/03/15 11:58:19;;;;;;;3.00;2.10;;;17.10;62.50;;;;;;5054827;28;20430;-71
2024/03/15 12:00:53;;;;;;;3.83;2.10;;;17.00;63.10;;;;;;5053205;28;20533;-75
2024/03/15 12:03:27;;;;;;;2.40;1.87;;;17.00;62.90;;;;;;5055678;28;20468;-72
2024/03/15 12:05:57;;;;;;;2.77;2.37;;;17.00;62.80;;;;;;5058968;28;20419;-74
2024/03/15 12:08:24;;;;;;;3.97;2.70;;;17.10;62.80;;;;;;5060942;28;20800;-73
2024/03/15 12:10:52;;;;;;;4.77;2.43;;;17.20;62.60;;;;;;5054558;28;21046;-73
2024/03/15 12:13:18;;;;;;;2.37;1.93;;;17.30;62.60;;;;;;5059020;28;20565;-72
2024/03/15 12:15:46;;;;;;;2.93;2.27;;;17.20;62.50;;;;;;5057181;28;20688;-73
2024/03/15 12:18:17;;;;;;;7.63;2.47;;;17.20;62.60;;;;;;5054834;28;20443;-73
2024/03/15 12:20:44;;;;;;;5.20;2.27;;;17.30;62.50;;;;;;5058542;28;20447;-73
2024/03/15 12:23:20;;;;;;;4.03;2.23;;;17.60;62.20;;;;;;5051045;28;20436;-73
2024/03/15 12:25:46;;;;;;;3.90;1.77;;;17.90;61.60;;;;;;5050003;28;20427;-70
2024/03/15 12:28:17;;;;;;;3.93;1.70;;;17.90;60.10;;;;;;5052229;28;20451;-72
2024/03/15 12:30:53;;;;;;;3.70;2.00;;;17.80;60.40;;;;;;5054524;28;20810;-73
2024/03/15 12:33:18;;;;;;;3.27;1.70;;;17.80;60.30;;;;;;5050632;28;20450;-73
2024/03/15 12:35:44;;;;;;;2.37;1.63;;;17.70;60.40;;;;;;5054773;28;21001;-74
2024/03/15 12:38:14;;;;;;;3.97;2.30;;;17.70;60.70;;;;;;5051366;28;20430;-73
2024/03/15 12:40:42;;;;;;;2.93;1.80;;;17.90;60.30;;;;;;5051232;28;20411;-73
2024/03/15 12:43:11;;;;;;;3.53;2.00;;;18.00;59.90;;;;;;5051711;28;20403;-74
2024/03/15 12:45:38;;;;;;;5.43;2.00;;;18.10;60.00;;;;;;5053971;28;20416;-74
2024/03/15 12:48:04;;;;;;;2.37;1.83;;;18.40;59.60;;;;;;5058653;28;20418;-75
2024/03/15 12:50:31;;;;;;;5.40;1.90;;;18.50;59.20;;;;;;5054012;28;20435;-77